sensor_id;sensor_type;location;lat;lon;timestamp;pressure;altitude;pressure_sealevel;temperature;humidity
22743;BME280;11538;48.884;8.696;2022-09-09T00:04:58;98353.72;;;17.27;74.97
22743;BME280;11538;48.884;8.696;2022-09-09T00:07:49;98357.41;;;17.35;74.30
22743;BME280;11538;48.884;8.696;2022-09-09T00:10:37;98356.78;;;17.42;73.83
22743;BME280;11538;48.884;8.696;2022-09-09T00:13:30;98363.88;;;17.43;73.43
22743;BME280;11538;48.884;8.696;2022-09-09T00:16:13;98358.28;;;17.55;72.97
22743;BME280;11538;48.884;8.696;2022-09-09T00:19:33;98354.38;;;17.56;72.87
22743;BME280;11538;48.884;8.696;2022-09-09T00:22:18;98357.06;;;17.72;72.50
22743;BME280;11538;48.884;8.696;2022-09-09T00:24:51;98356.72;;;17.74;73.27
22743;BME280;11538;48.884;8.696;2022-09-09T00:27:50;98352.81;;;17.75;73.38
22743;BME280;11538;48.884;8.696;2022-09-09T00:30:26;98356.34;;;17.75;73.95
22743;BME280;11538;48.884;8.696;2022-09-09T00:32:58;98365.38;;;17.76;74.03
22743;BME280;11538;48.884;8.696;2022-09-09T00:35:47;98365.56;;;17.67;74.87
22743;BME280;11538;48.884;8.696;2022-09-09T00:38:35;98354.13;;;17.45;77.45
22743;BME280;11538;48.884;8.696;2022-09-09T00:41:19;98353.97;;;17.38;79.51
22743;BME280;11538;48.884;8.696;2022-09-09T00:44:34;98348.69;;;17.13;78.70
22743;BME280;11538;48.884;8.696;2022-09-09T00:47:50;98346.81;;;17.01;79.17
22743;BME280;11538;48.884;8.696;2022-09-09T00:54:05;98350.28;;;17.30;78.34
22743;BME280;11538;48.884;8.696;2022-09-09T00:56:47;98349.13;;;17.31;78.10
22743;BME280;11538;48.884;8.696;2022-09-09T00:59:35;98352.28;;;17.33;77.88
22743;BME280;11538;48.884;8.696;2022-09-09T01:02:39;98352.28;;;17.33;77.87
22743;BME280;11538;48.884;8.696;2022-09-09T01:05:29;98358.13;;;17.32;77.97
22743;BME280;11538;48.884;8.696;2022-09-09T01:08:01;98362.13;;;17.34;78.10
22743;BME280;11538;48.884;8.696;2022-09-09T01:10:41;98369.00;;;17.28;78.50
22743;BME280;11538;48.884;8.696;2022-09-09T01:13:25;98376.53;;;17.31;78.79
22743;BME280;11538;48.884;8.696;2022-09-09T01:15:53;98374.50;;;17.12;79.82
22743;BME280;11538;48.884;8.696;2022-09-09T01:18:38;98383.31;;;17.05;80.25
22743;BME280;11538;48.884;8.696;2022-09-09T01:21:49;98379.25;;;17.15;79.78
22743;BME280;11538;48.884;8.696;2022-09-09T01:25:09;98380.13;;;17.03;80.79
22743;BME280;11538;48.884;8.696;2022-09-09T01:27:37;98386.41;;;17.04;81.94
22743;BME280;11538;48.884;8.696;2022-09-09T01:30:12;98392.53;;;17.13;81.44
22743;BME280;11538;48.884;8.696;2022-09-09T01:32:48;98387.47;;;17.15;81.16
22743;BME280;11538;48.884;8.696;2022-09-09T01:35:42;98405.41;;;17.13;82.44
22743;BME280;11538;48.884;8.696;2022-09-09T01:38:12;98423.44;;;17.14;85.35
22743;BME280;11538;48.884;8.696;2022-09-09T01:40:40;98394.75;;;17.39;82.65
22743;BME280;11538;48.884;8.696;2022-09-09T01:43:07;98390.31;;;17.51;82.17
22743;BME280;11538;48.884;8.696;2022-09-09T01:45:34;98379.84;;;17.57;82.12
22743;BME280;11538;48.884;8.696;2022-09-09T01:48:03;98370.63;;;17.65;81.90
22743;BME280;11538;48.884;8.696;2022-09-09T01:50:29;98362.22;;;17.74;84.63
22743;BME280;11538;48.884;8.696;2022-09-09T01:52:59;98376.38;;;17.76;86.04
22743;BME280;11538;48.884;8.696;2022-09-09T01:55:37;98381.84;;;17.76;86.03
22743;BME280;11538;48.884;8.696;2022-09-09T01:58:28;98391.66;;;17.77;85.10
22743;BME280;11538;48.884;8.696;2022-09-09T02:01:22;98400.94;;;17.72;87.09
22743;BME280;11538;48.884;8.696;2022-09-09T02:03:56;98388.13;;;17.76;87.36
22743;BME280;11538;48.884;8.696;2022-09-09T02:06:39;98384.94;;;17.74;85.29
22743;BME280;11538;48.884;8.696;2022-09-09T02:09:10;98389.09;;;17.68;84.33
22743;BME280;11538;48.884;8.696;2022-09-09T02:11:39;98381.59;;;17.65;83.45
22743;BME280;11538;48.884;8.696;2022-09-09T02:14:17;98370.00;;;17.72;86.76
22743;BME280;11538;48.884;8.696;2022-09-09T02:16:57;98367.97;;;17.68;87.67
22743;BME280;11538;48.884;8.696;2022-09-09T02:19:32;98360.91;;;17.67;89.36
22743;BME280;11538;48.884;8.696;2022-09-09T02:22:02;98355.09;;;17.53;92.29
22743;BME280;11538;48.884;8.696;2022-09-09T02:24:34;98339.91;;;17.39;91.44
22743;BME280;11538;48.884;8.696;2022-09-09T02:27:06;98339.47;;;17.21;90.63
22743;BME280;11538;48.884;8.696;2022-09-09T02:29:41;98336.84;;;17.09;92.07
22743;BME280;11538;48.884;8.696;2022-09-09T02:32:14;98334.38;;;17.04;92.50
22743;BME280;11538;48.884;8.696;2022-09-09T02:34:47;98333.13;;;17.01;93.81
22743;BME280;11538;48.884;8.696;2022-09-09T02:37:20;98333.03;;;17.14;94.90
22743;BME280;11538;48.884;8.696;2022-09-09T02:39:49;98337.78;;;17.17;92.68
22743;BME280;11538;48.884;8.696;2022-09-09T02:42:16;98338.22;;;17.19;92.47
22743;BME280;11538;48.884;8.696;2022-09-09T02:44:44;98344.84;;;17.18;93.38
22743;BME280;11538;48.884;8.696;2022-09-09T02:47:37;98338.50;;;17.14;93.51
22743;BME280;11538;48.884;8.696;2022-09-09T02:50:17;98335.25;;;17.08;94.81
22743;BME280;11538;48.884;8.696;2022-09-09T02:53:17;98337.53;;;17.06;95.21
22743;BME280;11538;48.884;8.696;2022-09-09T02:55:58;98336.75;;;17.05;95.08
22743;BME280;11538;48.884;8.696;2022-09-09T02:58:27;98333.34;;;16.96;92.50
22743;BME280;11538;48.884;8.696;2022-09-09T03:00:55;98328.59;;;16.93;93.02
22743;BME280;11538;48.884;8.696;2022-09-09T03:03:24;98323.19;;;16.96;93.54
22743;BME280;11538;48.884;8.696;2022-09-09T03:05:51;98319.47;;;16.89;91.47
22743;BME280;11538;48.884;8.696;2022-09-09T03:08:18;98319.13;;;16.90;91.38
22743;BME280;11538;48.884;8.696;2022-09-09T03:10:45;98330.53;;;16.92;87.40
22743;BME280;11538;48.884;8.696;2022-09-09T03:13:12;98328.94;;;16.91;87.90
22743;BME280;11538;48.884;8.696;2022-09-09T03:15:41;98329.28;;;16.90;88.67
22743;BME280;11538;48.884;8.696;2022-09-09T03:18:08;98337.06;;;16.88;87.43
22743;BME280;11538;48.884;8.696;2022-09-09T03:20:35;98340.31;;;16.77;89.17
22743;BME280;11538;48.884;8.696;2022-09-09T03:23:02;98335.56;;;16.58;91.00
22743;BME280;11538;48.884;8.696;2022-09-09T03:25:29;98348.25;;;16.50;90.20
22743;BME280;11538;48.884;8.696;2022-09-09T03:27:56;98353.28;;;16.48;90.65
22743;BME280;11538;48.884;8.696;2022-09-09T03:30:26;98353.34;;;16.52;89.51
22743;BME280;11538;48.884;8.696;2022-09-09T03:32:53;98346.19;;;16.47;88.78
22743;BME280;11538;48.884;8.696;2022-09-09T03:35:21;98356.34;;;16.47;87.99
22743;BME280;11538;48.884;8.696;2022-09-09T03:37:48;98352.38;;;16.44;87.60
22743;BME280;11538;48.884;8.696;2022-09-09T03:40:16;98350.09;;;16.46;88.34
22743;BME280;11538;48.884;8.696;2022-09-09T03:42:42;98352.56;;;16.51;87.70
22743;BME280;11538;48.884;8.696;2022-09-09T03:45:10;98347.59;;;16.41;88.43
22743;BME280;11538;48.884;8.696;2022-09-09T03:47:37;98348.56;;;16.33;89.78
22743;BME280;11538;48.884;8.696;2022-09-09T03:50:06;98351.75;;;16.35;90.93
22743;BME280;11538;48.884;8.696;2022-09-09T03:52:40;98344.16;;;16.44;88.54
22743;BME280;11538;48.884;8.696;2022-09-09T03:55:08;98354.41;;;16.47;88.85
22743;BME280;11538;48.884;8.696;2022-09-09T03:57:36;98351.94;;;16.42;88.21
22743;BME280;11538;48.884;8.696;2022-09-09T04:00:05;98357.44;;;16.58;87.87
22743;BME280;11538;48.884;8.696;2022-09-09T04:02:32;98357.66;;;16.65;87.22
22743;BME280;11538;48.884;8.696;2022-09-09T04:04:59;98348.88;;;16.60;87.61
22743;BME280;11538;48.884;8.696;2022-09-09T04:07:26;98345.88;;;16.65;89.41
22743;BME280;11538;48.884;8.696;2022-09-09T04:09:54;98339.63;;;16.64;88.73
22743;BME280;11538;48.884;8.696;2022-09-09T04:12:22;98333.25;;;16.60;87.14
22743;BME280;11538;48.884;8.696;2022-09-09T04:14:49;98341.03;;;16.58;90.00
22743;BME280;11538;48.884;8.696;2022-09-09T04:17:16;98346.41;;;16.55;87.25
22743;BME280;11538;48.884;8.696;2022-09-09T04:19:43;98348.88;;;16.60;87.53
22743;BME280;11538;48.884;8.696;2022-09-09T04:22:10;98356.94;;;16.69;85.29
22743;BME280;11538;48.884;8.696;2022-09-09T04:24:37;98364.53;;;16.75;84.25
22743;BME280;11538;48.884;8.696;2022-09-09T04:27:04;98367.81;;;16.81;84.51
22743;BME280;11538;48.884;8.696;2022-09-09T04:29:31;98363.81;;;16.78;86.35
22743;BME280;11538;48.884;8.696;2022-09-09T04:31:58;98372.41;;;16.77;86.83
22743;BME280;11538;48.884;8.696;2022-09-09T04:34:25;98379.75;;;16.73;87.57
22743;BME280;11538;48.884;8.696;2022-09-09T04:36:52;98372.22;;;16.70;87.69
22743;BME280;11538;48.884;8.696;2022-09-09T04:39:18;98380.00;;;16.67;87.51
22743;BME280;11538;48.884;8.696;2022-09-09T04:41:46;98383.50;;;16.68;86.81
22743;BME280;11538;48.884;8.696;2022-09-09T04:44:14;98372.81;;;16.63;86.03
22743;BME280;11538;48.884;8.696;2022-09-09T04:46:41;98379.28;;;16.71;86.33
22743;BME280;11538;48.884;8.696;2022-09-09T04:49:08;98378.03;;;16.68;83.82
22743;BME280;11538;48.884;8.696;2022-09-09T04:51:40;98386.66;;;16.54;85.20
22743;BME280;11538;48.884;8.696;2022-09-09T04:54:07;98383.72;;;16.47;85.01
22743;BME280;11538;48.884;8.696;2022-09-09T04:56:34;98385.03;;;16.37;85.95
22743;BME280;11538;48.884;8.696;2022-09-09T04:59:01;98389.50;;;16.29;87.17
22743;BME280;11538;48.884;8.696;2022-09-09T05:01:29;98393.63;;;16.23;88.42
22743;BME280;11538;48.884;8.696;2022-09-09T05:03:56;98396.97;;;16.16;88.04
22743;BME280;11538;48.884;8.696;2022-09-09T05:06:23;98397.66;;;16.13;89.06
22743;BME280;11538;48.884;8.696;2022-09-09T05:08:50;98403.38;;;16.08;89.66
22743;BME280;11538;48.884;8.696;2022-09-09T05:11:21;98403.13;;;16.13;89.46
22743;BME280;11538;48.884;8.696;2022-09-09T05:13:51;98397.97;;;16.12;88.79
22743;BME280;11538;48.884;8.696;2022-09-09T05:16:20;98402.47;;;16.04;88.91
22743;BME280;11538;48.884;8.696;2022-09-09T05:18:47;98411.59;;;15.96;89.16
22743;BME280;11538;48.884;8.696;2022-09-09T05:21:16;98402.59;;;15.95;90.02
22743;BME280;11538;48.884;8.696;2022-09-09T05:23:45;98412.50;;;16.00;89.98
22743;BME280;11538;48.884;8.696;2022-09-09T05:26:16;98410.06;;;16.11;88.97
22743;BME280;11538;48.884;8.696;2022-09-09T05:28:44;98414.16;;;16.17;88.21
22743;BME280;11538;48.884;8.696;2022-09-09T05:31:13;98416.06;;;16.29;87.33
22743;BME280;11538;48.884;8.696;2022-09-09T05:33:43;98421.59;;;16.45;86.11
22743;BME280;11538;48.884;8.696;2022-09-09T05:36:15;98412.47;;;16.41;84.88
22743;BME280;11538;48.884;8.696;2022-09-09T05:38:44;98424.94;;;16.38;84.89
22743;BME280;11538;48.884;8.696;2022-09-09T05:41:12;98417.88;;;16.37;84.80
22743;BME280;11538;48.884;8.696;2022-09-09T05:43:43;98418.13;;;16.32;84.96
22743;BME280;11538;48.884;8.696;2022-09-09T05:46:23;98411.50;;;16.33;84.95
22743;BME280;11538;48.884;8.696;2022-09-09T05:48:52;98410.69;;;16.32;85.08
22743;BME280;11538;48.884;8.696;2022-09-09T05:51:26;98415.91;;;16.37;84.41
22743;BME280;11538;48.884;8.696;2022-09-09T05:53:54;98420.00;;;16.44;83.89
22743;BME280;11538;48.884;8.696;2022-09-09T05:56:26;98419.66;;;16.45;84.10
22743;BME280;11538;48.884;8.696;2022-09-09T05:58:54;98422.84;;;16.47;83.91
22743;BME280;11538;48.884;8.696;2022-09-09T06:01:27;98422.84;;;16.47;84.65
22743;BME280;11538;48.884;8.696;2022-09-09T06:03:54;98414.19;;;16.45;84.87
22743;BME280;11538;48.884;8.696;2022-09-09T06:06:30;98423.78;;;16.39;85.63
22743;BME280;11538;48.884;8.696;2022-09-09T06:08:58;98425.72;;;16.38;85.51
22743;BME280;11538;48.884;8.696;2022-09-09T06:11:28;98422.94;;;16.51;85.20
22743;BME280;11538;48.884;8.696;2022-09-09T06:13:58;98428.97;;;16.57;85.10
22743;BME280;11538;48.884;8.696;2022-09-09T06:16:28;98428.03;;;16.65;84.18
22743;BME280;11538;48.884;8.696;2022-09-09T06:18:56;98423.34;;;16.65;84.22
22743;BME280;11538;48.884;8.696;2022-09-09T06:21:29;98429.78;;;16.57;85.76
22743;BME280;11538;48.884;8.696;2022-09-09T06:23:57;98420.94;;;16.64;86.20
22743;BME280;11538;48.884;8.696;2022-09-09T06:26:33;98420.25;;;16.67;84.92
22743;BME280;11538;48.884;8.696;2022-09-09T06:29:02;98426.38;;;16.76;84.78
22743;BME280;11538;48.884;8.696;2022-09-09T06:31:33;98427.56;;;16.91;84.07
22743;BME280;11538;48.884;8.696;2022-09-09T06:34:02;98431.94;;;17.08;82.63
22743;BME280;11538;48.884;8.696;2022-09-09T06:36:36;98424.28;;;17.30;81.73
22743;BME280;11538;48.884;8.696;2022-09-09T06:39:05;98423.75;;;17.41;81.57
22743;BME280;11538;48.884;8.696;2022-09-09T06:41:39;98417.63;;;17.47;81.08
22743;BME280;11538;48.884;8.696;2022-09-09T06:44:06;98419.31;;;17.52;80.31
22743;BME280;11538;48.884;8.696;2022-09-09T06:46:33;98425.41;;;17.61;80.84
22743;BME280;11538;48.884;8.696;2022-09-09T06:49:00;98422.66;;;17.61;80.39
22743;BME280;11538;48.884;8.696;2022-09-09T06:51:30;98423.53;;;17.65;80.31
22743;BME280;11538;48.884;8.696;2022-09-09T06:54:00;98418.50;;;17.67;80.08
22743;BME280;11538;48.884;8.696;2022-09-09T06:56:34;98422.38;;;17.66;80.05
22743;BME280;11538;48.884;8.696;2022-09-09T06:59:05;98425.28;;;17.74;80.48
22743;BME280;11538;48.884;8.696;2022-09-09T07:01:35;98418.44;;;17.83;80.95
22743;BME280;11538;48.884;8.696;2022-09-09T07:04:04;98428.03;;;17.90;79.01
22743;BME280;11538;48.884;8.696;2022-09-09T07:06:38;98425.06;;;17.98;78.68
22743;BME280;11538;48.884;8.696;2022-09-09T07:09:08;98429.16;;;18.05;78.01
22743;BME280;11538;48.884;8.696;2022-09-09T07:11:45;98427.00;;;18.14;78.28
22743;BME280;11538;48.884;8.696;2022-09-09T07:14:13;98423.97;;;18.19;79.08
22743;BME280;11538;48.884;8.696;2022-09-09T07:16:45;98423.81;;;18.32;78.00
22743;BME280;11538;48.884;8.696;2022-09-09T07:19:13;98412.56;;;18.37;77.11
22743;BME280;11538;48.884;8.696;2022-09-09T07:21:42;98413.41;;;18.41;77.63
22743;BME280;11538;48.884;8.696;2022-09-09T07:24:11;98415.16;;;18.49;75.41
22743;BME280;11538;48.884;8.696;2022-09-09T07:26:39;98412.56;;;18.56;74.58
22743;BME280;11538;48.884;8.696;2022-09-09T07:29:08;98417.34;;;18.60;73.60
22743;BME280;11538;48.884;8.696;2022-09-09T07:31:38;98415.50;;;18.67;74.54
22743;BME280;11538;48.884;8.696;2022-09-09T07:34:07;98425.03;;;18.74;73.83
22743;BME280;11538;48.884;8.696;2022-09-09T07:36:37;98431.66;;;18.69;74.88
22743;BME280;11538;48.884;8.696;2022-09-09T07:39:11;98427.44;;;18.75;74.91
22743;BME280;11538;48.884;8.696;2022-09-09T07:41:45;98434.66;;;18.83;74.00
22743;BME280;11538;48.884;8.696;2022-09-09T07:44:17;98440.28;;;18.91;72.56
22743;BME280;11538;48.884;8.696;2022-09-09T07:46:44;98436.66;;;19.06;72.61
22743;BME280;11538;48.884;8.696;2022-09-09T07:49:13;98428.66;;;19.21;73.06
22743;BME280;11538;48.884;8.696;2022-09-09T07:51:46;98425.06;;;19.40;73.03
22743;BME280;11538;48.884;8.696;2022-09-09T07:54:17;98417.19;;;19.65;72.36
22743;BME280;11538;48.884;8.696;2022-09-09T07:56:47;98428.06;;;20.08;69.04
22743;BME280;11538;48.884;8.696;2022-09-09T07:59:13;98423.31;;;20.36;66.11
22743;BME280;11538;48.884;8.696;2022-09-09T08:01:47;98432.16;;;20.52;65.20
22743;BME280;11538;48.884;8.696;2022-09-09T08:04:18;98435.84;;;20.64;65.08
22743;BME280;11538;48.884;8.696;2022-09-09T08:06:53;98440.09;;;20.88;64.20
22743;BME280;11538;48.884;8.696;2022-09-09T08:09:21;98431.63;;;21.11;62.32
22743;BME280;11538;48.884;8.696;2022-09-09T08:11:48;98433.25;;;21.16;62.00
22743;BME280;11538;48.884;8.696;2022-09-09T08:14:15;98430.94;;;20.80;59.68
22743;BME280;11538;48.884;8.696;2022-09-09T08:16:46;98429.16;;;20.65;61.52
22743;BME280;11538;48.884;8.696;2022-09-09T08:19:14;98437.28;;;20.54;62.92
22743;BME280;11538;48.884;8.696;2022-09-09T08:21:45;98436.38;;;20.42;62.34
22743;BME280;11538;48.884;8.696;2022-09-09T08:24:13;98444.28;;;20.78;61.53
22743;BME280;11538;48.884;8.696;2022-09-09T08:26:45;98441.56;;;21.19;59.60
22743;BME280;11538;48.884;8.696;2022-09-09T08:29:14;98435.84;;;21.43;58.84
22743;BME280;11538;48.884;8.696;2022-09-09T08:31:51;98432.06;;;21.62;57.85
22743;BME280;11538;48.884;8.696;2022-09-09T08:34:21;98427.13;;;21.86;56.42
22743;BME280;11538;48.884;8.696;2022-09-09T08:36:50;98429.28;;;22.14;55.84
22743;BME280;11538;48.884;8.696;2022-09-09T08:39:20;98436.53;;;22.48;56.74
22743;BME280;11538;48.884;8.696;2022-09-09T08:45:15;98443.41;;;22.90;50.85
22743;BME280;11538;48.884;8.696;2022-09-09T08:50:39;98439.44;;;21.99;52.53
22743;BME280;11538;48.884;8.696;2022-09-09T08:55:56;98438.00;;;22.27;51.84
22743;BME280;11538;48.884;8.696;2022-09-09T08:58:33;98446.41;;;22.45;51.73
22743;BME280;11538;48.884;8.696;2022-09-09T09:04:26;98446.75;;;22.44;52.35
22743;BME280;11538;48.884;8.696;2022-09-09T09:07:44;98454.09;;;22.96;50.94
22743;BME280;11538;48.884;8.696;2022-09-09T09:10:48;98455.59;;;22.68;52.39
22743;BME280;11538;48.884;8.696;2022-09-09T09:14:07;98462.13;;;22.38;52.97
22743;BME280;11538;48.884;8.696;2022-09-09T09:19:30;98455.88;;;21.77;52.54
22743;BME280;11538;48.884;8.696;2022-09-09T09:24:53;98451.03;;;21.64;53.50
22743;BME280;11538;48.884;8.696;2022-09-09T09:29:59;98460.31;;;21.44;53.75
22743;BME280;11538;48.884;8.696;2022-09-09T09:32:59;98443.13;;;21.17;56.23
22743;BME280;11538;48.884;8.696;2022-09-09T09:35:28;98441.81;;;21.03;58.23
22743;BME280;11538;48.884;8.696;2022-09-09T09:37:55;98447.28;;;21.00;57.56
22743;BME280;11538;48.884;8.696;2022-09-09T09:40:58;98442.31;;;21.16;56.85
22743;BME280;11538;48.884;8.696;2022-09-09T09:43:34;98451.97;;;21.86;55.64
22743;BME280;11538;48.884;8.696;2022-09-09T09:46:19;98430.72;;;22.75;53.24
22743;BME280;11538;48.884;8.696;2022-09-09T09:49:01;98435.19;;;23.41;49.92
22743;BME280;11538;48.884;8.696;2022-09-09T09:51:31;98426.47;;;23.68;49.56
22743;BME280;11538;48.884;8.696;2022-09-09T09:54:28;98429.09;;;24.41;48.43
22743;BME280;11538;48.884;8.696;2022-09-09T09:57:08;98420.44;;;24.28;47.88
22743;BME280;11538;48.884;8.696;2022-09-09T09:59:36;98432.00;;;23.68;46.35
22743;BME280;11538;48.884;8.696;2022-09-09T10:02:36;98426.81;;;23.01;47.47
22743;BME280;11538;48.884;8.696;2022-09-09T10:05:13;98435.59;;;23.36;48.05
22743;BME280;11538;48.884;8.696;2022-09-09T10:07:40;98426.88;;;23.63;44.72
22743;BME280;11538;48.884;8.696;2022-09-09T10:10:16;98447.84;;;23.71;44.07
22743;BME280;11538;48.884;8.696;2022-09-09T10:19:16;98463.66;;;23.96;43.89
22743;BME280;11538;48.884;8.696;2022-09-09T10:25:15;98472.41;;;22.37;48.14
22743;BME280;11538;48.884;8.696;2022-09-09T10:33:12;98471.44;;;21.14;58.02
22743;BME280;11538;48.884;8.696;2022-09-09T10:38:46;98472.16;;;21.07;60.50
22743;BME280;11538;48.884;8.696;2022-09-09T10:41:29;98478.09;;;21.09;62.97
22743;BME280;11538;48.884;8.696;2022-09-09T10:44:11;98481.78;;;20.86;60.64
22743;BME280;11538;48.884;8.696;2022-09-09T10:50:01;98482.25;;;20.62;60.44
22743;BME280;11538;48.884;8.696;2022-09-09T10:56:12;98496.53;;;20.40;62.04
22743;BME280;11538;48.884;8.696;2022-09-09T10:58:53;98497.75;;;20.12;62.29
22743;BME280;11538;48.884;8.696;2022-09-09T11:01:39;98508.97;;;20.00;64.10
22743;BME280;11538;48.884;8.696;2022-09-09T11:06:53;98495.72;;;19.86;65.57
22743;BME280;11538;48.884;8.696;2022-09-09T11:09:36;98500.28;;;19.75;67.24
22743;BME280;11538;48.884;8.696;2022-09-09T11:12:13;98499.91;;;19.53;67.78
22743;BME280;11538;48.884;8.696;2022-09-09T11:14:59;98486.09;;;19.26;70.01
22743;BME280;11538;48.884;8.696;2022-09-09T11:17:44;98487.75;;;19.07;71.10
22743;BME280;11538;48.884;8.696;2022-09-09T11:20:14;98495.56;;;19.05;70.92
22743;BME280;11538;48.884;8.696;2022-09-09T11:25:39;98495.38;;;19.18;70.52
22743;BME280;11538;48.884;8.696;2022-09-09T11:28:37;98486.09;;;19.26;69.64
22743;BME280;11538;48.884;8.696;2022-09-09T11:40:30;98464.59;;;19.55;68.34
22743;BME280;11538;48.884;8.696;2022-09-09T11:43:12;98462.25;;;19.57;67.70
22743;BME280;11538;48.884;8.696;2022-09-09T11:45:42;98457.16;;;19.82;67.59
22743;BME280;11538;48.884;8.696;2022-09-09T11:48:59;98448.47;;;20.34;64.85
22743;BME280;11538;48.884;8.696;2022-09-09T11:51:30;98447.00;;;21.54;62.00
22743;BME280;11538;48.884;8.696;2022-09-09T11:54:32;98431.19;;;23.13;56.41
22743;BME280;11538;48.884;8.696;2022-09-09T11:57:02;98433.19;;;23.96;53.73
22743;BME280;11538;48.884;8.696;2022-09-09T11:59:33;98415.50;;;24.72;50.70
22743;BME280;11538;48.884;8.696;2022-09-09T12:02:25;98421.38;;;25.48;48.16
22743;BME280;11538;48.884;8.696;2022-09-09T12:05:06;98427.56;;;26.05;44.80
22743;BME280;11538;48.884;8.696;2022-09-09T12:07:48;98425.03;;;26.22;43.62
22743;BME280;11538;48.884;8.696;2022-09-09T12:10:30;98420.94;;;25.92;42.79
22743;BME280;11538;48.884;8.696;2022-09-09T12:13:24;98412.16;;;26.97;41.67
22743;BME280;11538;48.884;8.696;2022-09-09T12:15:55;98423.53;;;27.34;40.48
22743;BME280;11538;48.884;8.696;2022-09-09T12:18:38;98414.94;;;27.25;39.08
22743;BME280;11538;48.884;8.696;2022-09-09T12:24:37;98406.47;;;28.00;39.43
22743;BME280;11538;48.884;8.696;2022-09-09T12:27:24;98418.72;;;28.26;38.72
22743;BME280;11538;48.884;8.696;2022-09-09T12:30:08;98416.69;;;28.67;37.87
22743;BME280;11538;48.884;8.696;2022-09-09T12:32:36;98409.50;;;28.50;37.31
22743;BME280;11538;48.884;8.696;2022-09-09T12:35:22;98402.81;;;26.80;40.88
22743;BME280;11538;48.884;8.696;2022-09-09T12:37:59;98398.06;;;26.81;40.50
22743;BME280;11538;48.884;8.696;2022-09-09T12:40:34;98400.16;;;25.69;43.38
22743;BME280;11538;48.884;8.696;2022-09-09T12:43:22;98406.84;;;25.75;42.54
22743;BME280;11538;48.884;8.696;2022-09-09T12:45:54;98390.56;;;25.32;43.35
22743;BME280;11538;48.884;8.696;2022-09-09T12:48:38;98401.59;;;24.82;44.55
22743;BME280;11538;48.884;8.696;2022-09-09T12:51:35;98388.75;;;26.64;40.23
22743;BME280;11538;48.884;8.696;2022-09-09T12:54:03;98395.59;;;26.59;40.24
22743;BME280;11538;48.884;8.696;2022-09-09T12:56:32;98385.78;;;26.12;40.90
22743;BME280;11538;48.884;8.696;2022-09-09T12:58:59;98384.31;;;25.20;42.59
22743;BME280;11538;48.884;8.696;2022-09-09T13:01:31;98380.41;;;25.07;42.87
22743;BME280;11538;48.884;8.696;2022-09-09T13:04:00;98382.19;;;24.79;43.39
22743;BME280;11538;48.884;8.696;2022-09-09T13:06:32;98386.06;;;24.11;44.60
22743;BME280;11538;48.884;8.696;2022-09-09T13:09:01;98394.44;;;23.78;44.34
22743;BME280;11538;48.884;8.696;2022-09-09T13:11:38;98396.38;;;24.06;42.59
22743;BME280;11538;48.884;8.696;2022-09-09T13:14:31;98382.91;;;23.98;44.19
22743;BME280;11538;48.884;8.696;2022-09-09T13:17:02;98379.28;;;25.92;38.86
22743;BME280;11538;48.884;8.696;2022-09-09T13:19:36;98376.66;;;26.78;36.64
22743;BME280;11538;48.884;8.696;2022-09-09T13:22:41;98359.19;;;25.77;38.32
22743;BME280;11538;48.884;8.696;2022-09-09T13:27:40;98353.69;;;27.69;34.79
22743;BME280;11538;48.884;8.696;2022-09-09T13:30:27;98354.97;;;26.34;37.13
22743;BME280;11538;48.884;8.696;2022-09-09T13:35:55;98356.53;;;25.66;39.09
22743;BME280;11538;48.884;8.696;2022-09-09T13:38:27;98346.09;;;24.86;40.73
22743;BME280;11538;48.884;8.696;2022-09-09T13:41:06;98352.06;;;23.95;43.07
22743;BME280;11538;48.884;8.696;2022-09-09T13:43:44;98349.38;;;23.59;43.25
22743;BME280;11538;48.884;8.696;2022-09-09T13:46:32;98350.16;;;23.60;43.54
22743;BME280;11538;48.884;8.696;2022-09-09T13:51:43;98352.59;;;23.32;44.86
22743;BME280;11538;48.884;8.696;2022-09-09T13:54:15;98353.34;;;23.15;45.09
22743;BME280;11538;48.884;8.696;2022-09-09T13:56:44;98359.66;;;22.97;46.23
22743;BME280;11538;48.884;8.696;2022-09-09T13:59:15;98338.31;;;22.87;46.21
22743;BME280;11538;48.884;8.696;2022-09-09T14:01:42;98350.56;;;22.86;45.35
22743;BME280;11538;48.884;8.696;2022-09-09T14:04:10;98360.06;;;22.88;45.86
22743;BME280;11538;48.884;8.696;2022-09-09T14:09:10;98364.78;;;22.84;43.86
22743;BME280;11538;48.884;8.696;2022-09-09T14:11:38;98383.78;;;22.97;43.94
22743;BME280;11538;48.884;8.696;2022-09-09T14:14:05;98361.63;;;23.00;44.22
22743;BME280;11538;48.884;8.696;2022-09-09T14:16:33;98370.66;;;23.95;42.45
22743;BME280;11538;48.884;8.696;2022-09-09T14:19:00;98362.41;;;24.80;42.99
22743;BME280;11538;48.884;8.696;2022-09-09T14:21:28;98358.25;;;24.36;46.50
22743;BME280;11538;48.884;8.696;2022-09-09T14:23:55;98365.16;;;23.80;45.53
22743;BME280;11538;48.884;8.696;2022-09-09T14:26:25;98365.59;;;23.61;46.57
22743;BME280;11538;48.884;8.696;2022-09-09T14:28:52;98361.66;;;23.33;45.32
22743;BME280;11538;48.884;8.696;2022-09-09T14:31:23;98368.34;;;23.14;45.17
22743;BME280;11538;48.884;8.696;2022-09-09T14:33:50;98362.47;;;23.30;44.92
22743;BME280;11538;48.884;8.696;2022-09-09T14:36:18;98358.88;;;23.55;43.50
22743;BME280;11538;48.884;8.696;2022-09-09T14:38:45;98358.06;;;23.58;42.77
22743;BME280;11538;48.884;8.696;2022-09-09T14:41:16;98360.53;;;24.52;41.18
22743;BME280;11538;48.884;8.696;2022-09-09T14:43:44;98365.72;;;25.59;39.28
22743;BME280;11538;48.884;8.696;2022-09-09T14:46:14;98362.22;;;25.93;37.57
22743;BME280;11538;48.884;8.696;2022-09-09T14:48:42;98361.59;;;26.13;37.25
22743;BME280;11538;48.884;8.696;2022-09-09T14:53:45;98366.63;;;24.21;40.82
22743;BME280;11538;48.884;8.696;2022-09-09T14:56:19;98373.47;;;23.77;41.67
22743;BME280;11538;48.884;8.696;2022-09-09T14:58:47;98363.19;;;23.70;41.82
22743;BME280;11538;48.884;8.696;2022-09-09T15:01:18;98365.16;;;23.77;42.26
22743;BME280;11538;48.884;8.696;2022-09-09T15:04:00;98350.16;;;23.71;42.94